sensor_id;sensor_type;location;lat;lon;timestamp;P1;P2;P0
30713;PMS7003;17465;47.934;33.430;2023-02-18T00:00:52;45.75;36.50;19.75
30713;PMS7003;17465;47.934;33.430;2023-02-18T00:03:23;51.50;44.50;23.75
30713;PMS7003;17465;47.934;33.430;2023-02-18T00:05:56;42.50;38.50;19.25
30713;PMS7003;17465;47.934;33.430;2023-02-18T00:08:26;48.75;41.00;23.25
30713;PMS7003;17465;47.934;33.430;2023-02-18T00:10:57;45.25;39.25;19.00
30713;PMS7003;17465;47.934;33.430;2023-02-18T00:13:27;34.25;32.50;16.75
30713;PMS7003;17465;47.934;33.430;2023-02-18T00:16:04;37.75;35.25;17.75
30713;PMS7003;17465;47.934;33.430;2023-02-18T00:18:36;37.00;37.00;20.75
30713;PMS7003;17465;47.934;33.430;2023-02-18T00:21:08;39.25;38.00;20.25
30713;PMS7003;17465;47.934;33.430;2023-02-18T00:23:39;39.50;36.50;16.75
30713;PMS7003;17465;47.934;33.430;2023-02-18T00:26:11;33.25;29.50;19.25
30713;PMS7003;17465;47.934;33.430;2023-02-18T00:28:44;34.75;33.25;17.00
30713;PMS7003;17465;47.934;33.430;2023-02-18T00:31:17;38.00;35.50;18.50
30713;PMS7003;17465;47.934;33.430;2023-02-18T00:33:48;39.50;34.75;16.00
30713;PMS7003;17465;47.934;33.430;2023-02-18T00:36:20;36.00;32.25;15.75
30713;PMS7003;17465;47.934;33.430;2023-02-18T00:38:52;38.50;34.50;18.25
30713;PMS7003;17465;47.934;33.430;2023-02-18T00:41:25;32.75;27.75;13.50
30713;PMS7003;17465;47.934;33.430;2023-02-18T00:43:57;37.50;33.25;15.50
30713;PMS7003;17465;47.934;33.430;2023-02-18T00:46:28;35.50;32.75;17.25
30713;PMS7003;17465;47.934;33.430;2023-02-18T00:48:58;39.50;37.25;19.50
30713;PMS7003;17465;47.934;33.430;2023-02-18T00:51:37;28.50;28.25;12.75
30713;PMS7003;17465;47.934;33.430;2023-02-18T00:54:07;32.00;25.75;12.75
30713;PMS7003;17465;47.934;33.430;2023-02-18T00:56:38;35.25;33.75;18.50
30713;PMS7003;17465;47.934;33.430;2023-02-18T00:59:09;28.50;24.50;14.50
30713;PMS7003;17465;47.934;33.430;2023-02-18T01:01:40;32.75;26.50;9.50
30713;PMS7003;17465;47.934;33.430;2023-02-18T01:04:11;20.50;16.50;9.50
30713;PMS7003;17465;47.934;33.430;2023-02-18T01:06:41;26.25;22.50;14.25
30713;PMS7003;17465;47.934;33.430;2023-02-18T01:09:12;27.25;22.75;12.00
30713;PMS7003;17465;47.934;33.430;2023-02-18T01:11:43;43.25;40.75;21.50
30713;PMS7003;17465;47.934;33.430;2023-02-18T01:14:14;34.75;31.25;18.25
30713;PMS7003;17465;47.934;33.430;2023-02-18T01:16:45;33.75;32.50;16.00
30713;PMS7003;17465;47.934;33.430;2023-02-18T01:19:16;30.50;26.50;13.25
30713;PMS7003;17465;47.934;33.430;2023-02-18T01:21:47;37.50;29.25;19.00
30713;PMS7003;17465;47.934;33.430;2023-02-18T01:24:18;30.25;30.25;19.00
30713;PMS7003;17465;47.934;33.430;2023-02-18T01:26:48;38.00;36.00;19.25
30713;PMS7003;17465;47.934;33.430;2023-02-18T01:29:19;45.75;42.75;23.25
30713;PMS7003;17465;47.934;33.430;2023-02-18T01:31:49;41.50;38.25;15.75
30713;PMS7003;17465;47.934;33.430;2023-02-18T01:34:22;31.50;27.25;13.25
30713;PMS7003;17465;47.934;33.430;2023-02-18T01:36:54;40.50;31.75;19.25
30713;PMS7003;17465;47.934;33.430;2023-02-18T01:39:27;37.00;27.25;15.25
30713;PMS7003;17465;47.934;33.430;2023-02-18T01:41:57;50.75;40.75;19.00
30713;PMS7003;17465;47.934;33.430;2023-02-18T01:44:28;35.25;32.25;16.25
30713;PMS7003;17465;47.934;33.430;2023-02-18T01:46:58;46.50;41.00;21.25
30713;PMS7003;17465;47.934;33.430;2023-02-18T01:49:34;43.50;36.50;19.00
30713;PMS7003;17465;47.934;33.430;2023-02-18T01:52:08;43.50;33.00;19.25
30713;PMS7003;17465;47.934;33.430;2023-02-18T01:54:40;48.00;39.75;18.25
30713;PMS7003;17465;47.934;33.430;2023-02-18T01:57:13;47.25;43.50;24.25
30713;PMS7003;17465;47.934;33.430;2023-02-18T01:59:59;46.00;40.50;18.00
30713;PMS7003;17465;47.934;33.430;2023-02-18T02:02:35;49.50;42.00;21.25
30713;PMS7003;17465;47.934;33.430;2023-02-18T02:05:08;53.50;46.00;25.50
30713;PMS7003;17465;47.934;33.430;2023-02-18T02:07:46;54.00;46.00;25.75
30713;PMS7003;17465;47.934;33.430;2023-02-18T02:10:12;66.25;51.00;25.50
30713;PMS7003;17465;47.934;33.430;2023-02-18T02:23:52;65.75;52.25;28.50
30713;PMS7003;17465;47.934;33.430;2023-02-18T02:29:29;56.25;45.25;22.75
30713;PMS7003;17465;47.934;33.430;2023-02-18T02:32:31;60.00;48.00;23.25
30713;PMS7003;17465;47.934;33.430;2023-02-18T02:40:34;62.50;51.00;22.00
30713;PMS7003;17465;47.934;33.430;2023-02-18T02:43:14;49.50;43.50;21.25
30713;PMS7003;17465;47.934;33.430;2023-02-18T02:54:23;61.75;47.25;27.50
30713;PMS7003;17465;47.934;33.430;2023-02-18T02:59:42;57.00;44.00;20.00
30713;PMS7003;17465;47.934;33.430;2023-02-18T03:05:07;62.00;49.50;29.75
30713;PMS7003;17465;47.934;33.430;2023-02-18T03:10:42;93.75;69.00;39.50
30713;PMS7003;17465;47.934;33.430;2023-02-18T03:13:34;71.00;56.00;36.25
30713;PMS7003;17465;47.934;33.430;2023-02-18T03:16:56;68.25;51.50;32.00
30713;PMS7003;17465;47.934;33.430;2023-02-18T03:19:00;69.75;50.25;26.50
30713;PMS7003;17465;47.934;33.430;2023-02-18T03:21:40;72.00;57.50;31.00
30713;PMS7003;17465;47.934;33.430;2023-02-18T03:24:31;76.25;60.75;35.75
30713;PMS7003;17465;47.934;33.430;2023-02-18T03:27:03;60.75;49.00;28.25
30713;PMS7003;17465;47.934;33.430;2023-02-18T03:29:42;61.25;49.25;27.25
30713;PMS7003;17465;47.934;33.430;2023-02-18T03:32:16;65.50;54.00;30.75
30713;PMS7003;17465;47.934;33.430;2023-02-18T03:34:53;69.75;56.00;30.25
30713;PMS7003;17465;47.934;33.430;2023-02-18T03:37:30;55.50;49.00;25.00
30713;PMS7003;17465;47.934;33.430;2023-02-18T03:40:00;60.25;46.50;28.00
30713;PMS7003;17465;47.934;33.430;2023-02-18T03:42:32;70.25;54.00;30.00
30713;PMS7003;17465;47.934;33.430;2023-02-18T03:45:03;64.25;50.75;28.00
30713;PMS7003;17465;47.934;33.430;2023-02-18T03:47:41;41.75;36.25;9.00
30713;PMS7003;17465;47.934;33.430;2023-02-18T03:50:12;66.00;55.25;32.25
30713;PMS7003;17465;47.934;33.430;2023-02-18T03:52:44;57.50;47.75;26.00
30713;PMS7003;17465;47.934;33.430;2023-02-18T03:55:14;63.50;50.25;31.75
30713;PMS7003;17465;47.934;33.430;2023-02-18T03:57:45;61.50;49.25;26.25
30713;PMS7003;17465;47.934;33.430;2023-02-18T04:00:16;71.50;54.75;30.25
30713;PMS7003;17465;47.934;33.430;2023-02-18T04:02:46;60.75;51.25;29.25
30713;PMS7003;17465;47.934;33.430;2023-02-18T04:05:17;65.25;55.00;31.00
30713;PMS7003;17465;47.934;33.430;2023-02-18T04:07:50;63.25;53.75;28.50
30713;PMS7003;17465;47.934;33.430;2023-02-18T04:10:27;69.25;54.00;28.50
30713;PMS7003;17465;47.934;33.430;2023-02-18T04:12:57;65.75;51.50;31.00
30713;PMS7003;17465;47.934;33.430;2023-02-18T04:15:28;48.75;42.25;26.25
30713;PMS7003;17465;47.934;33.430;2023-02-18T04:17:59;73.50;58.50;34.25
30713;PMS7003;17465;47.934;33.430;2023-02-18T04:20:30;69.00;53.75;31.75
30713;PMS7003;17465;47.934;33.430;2023-02-18T04:23:01;64.75;50.50;29.25
30713;PMS7003;17465;47.934;33.430;2023-02-18T04:25:32;60.00;48.00;29.25
30713;PMS7003;17465;47.934;33.430;2023-02-18T04:28:03;57.75;50.00;31.50
30713;PMS7003;17465;47.934;33.430;2023-02-18T04:30:34;60.75;47.50;24.75
30713;PMS7003;17465;47.934;33.430;2023-02-18T04:33:05;65.50;51.75;31.00
30713;PMS7003;17465;47.934;33.430;2023-02-18T04:35:36;44.00;34.50;14.00
30713;PMS7003;17465;47.934;33.430;2023-02-18T04:38:10;54.25;49.25;26.00
30713;PMS7003;17465;47.934;33.430;2023-02-18T04:40:41;70.00;54.25;33.25
30713;PMS7003;17465;47.934;33.430;2023-02-18T04:43:12;68.25;55.50;27.50
30713;PMS7003;17465;47.934;33.430;2023-02-18T04:45:43;78.75;60.25;33.25
30713;PMS7003;17465;47.934;33.430;2023-02-18T04:48:14;69.25;55.00;28.00
30713;PMS7003;17465;47.934;33.430;2023-02-18T04:50:45;73.25;57.50;32.75
30713;PMS7003;17465;47.934;33.430;2023-02-18T04:53:15;77.50;60.75;35.75
30713;PMS7003;17465;47.934;33.430;2023-02-18T04:55:56;83.75;65.00;39.25
30713;PMS7003;17465;47.934;33.430;2023-02-18T04:58:27;67.50;56.50;32.25
30713;PMS7003;17465;47.934;33.430;2023-02-18T05:00:58;68.00;53.50;30.75
30713;PMS7003;17465;47.934;33.430;2023-02-18T05:03:30;69.50;56.00;32.75
30713;PMS7003;17465;47.934;33.430;2023-02-18T05:06:01;76.00;61.75;36.00
30713;PMS7003;17465;47.934;33.430;2023-02-18T05:08:32;68.75;54.75;32.75
30713;PMS7003;17465;47.934;33.430;2023-02-18T05:11:06;47.50;42.00;30.25
30713;PMS7003;17465;47.934;33.430;2023-02-18T05:13:57;82.50;65.25;38.75
30713;PMS7003;17465;47.934;33.430;2023-02-18T05:16:28;71.50;58.00;31.25
30713;PMS7003;17465;47.934;33.430;2023-02-18T05:18:59;84.25;66.00;39.00
30713;PMS7003;17465;47.934;33.430;2023-02-18T05:21:30;94.25;73.50;46.00
30713;PMS7003;17465;47.934;33.430;2023-02-18T05:24:00;76.50;62.25;41.75
30713;PMS7003;17465;47.934;33.430;2023-02-18T05:26:31;98.50;78.50;45.00
30713;PMS7003;17465;47.934;33.430;2023-02-18T05:29:02;93.00;72.25;43.75
30713;PMS7003;17465;47.934;33.430;2023-02-18T05:31:33;93.50;73.50;44.25
30713;PMS7003;17465;47.934;33.430;2023-02-18T05:34:04;95.75;73.50;45.25
30713;PMS7003;17465;47.934;33.430;2023-02-18T05:36:35;100.75;81.50;45.25
30713;PMS7003;17465;47.934;33.430;2023-02-18T05:39:06;85.75;69.75;44.25
30713;PMS7003;17465;47.934;33.430;2023-02-18T05:41:37;91.00;70.75;41.25
30713;PMS7003;17465;47.934;33.430;2023-02-18T05:44:07;76.75;61.25;37.25
30713;PMS7003;17465;47.934;33.430;2023-02-18T05:46:38;77.00;62.50;37.00
30713;PMS7003;17465;47.934;33.430;2023-02-18T05:49:09;75.00;58.75;35.75
30713;PMS7003;17465;47.934;33.430;2023-02-18T05:51:41;65.00;52.50;32.00
30713;PMS7003;17465;47.934;33.430;2023-02-18T05:54:11;86.25;66.25;39.50
30713;PMS7003;17465;47.934;33.430;2023-02-18T05:56:42;78.50;63.00;39.00
30713;PMS7003;17465;47.934;33.430;2023-02-18T05:59:12;94.25;71.00;39.00
30713;PMS7003;17465;47.934;33.430;2023-02-18T06:01:43;70.25;57.50;35.00
30713;PMS7003;17465;47.934;33.430;2023-02-18T06:04:15;81.50;63.00;36.00
30713;PMS7003;17465;47.934;33.430;2023-02-18T06:06:45;70.50;58.25;32.50
30713;PMS7003;17465;47.934;33.430;2023-02-18T06:09:16;81.25;57.50;35.25
30713;PMS7003;17465;47.934;33.430;2023-02-18T06:11:47;77.75;61.75;36.00
30713;PMS7003;17465;47.934;33.430;2023-02-18T06:14:19;82.75;64.25;36.00
30713;PMS7003;17465;47.934;33.430;2023-02-18T06:16:51;73.50;58.25;32.75
30713;PMS7003;17465;47.934;33.430;2023-02-18T06:19:22;75.25;61.50;37.25
30713;PMS7003;17465;47.934;33.430;2023-02-18T06:21:53;91.00;67.75;39.75
30713;PMS7003;17465;47.934;33.430;2023-02-18T06:24:24;85.50;66.25;41.50
30713;PMS7003;17465;47.934;33.430;2023-02-18T06:26:55;74.00;61.50;38.75
30713;PMS7003;17465;47.934;33.430;2023-02-18T06:29:28;111.00;102.75;60.50
30713;PMS7003;17465;47.934;33.430;2023-02-18T06:31:59;96.25;77.50;51.25
30713;PMS7003;17465;47.934;33.430;2023-02-18T06:34:31;116.25;105.25;61.25
30713;PMS7003;17465;47.934;33.430;2023-02-18T06:37:10;96.50;75.75;43.25
30713;PMS7003;17465;47.934;33.430;2023-02-18T06:39:42;101.25;78.75;44.75
30713;PMS7003;17465;47.934;33.430;2023-02-18T06:42:13;91.00;71.50;45.00
30713;PMS7003;17465;47.934;33.430;2023-02-18T06:44:44;98.00;82.50;47.50
30713;PMS7003;17465;47.934;33.430;2023-02-18T06:47:14;92.75;71.50;47.25
30713;PMS7003;17465;47.934;33.430;2023-02-18T06:49:52;77.75;63.75;39.25
30713;PMS7003;17465;47.934;33.430;2023-02-18T06:52:23;78.75;60.00;32.75
30713;PMS7003;17465;47.934;33.430;2023-02-18T06:54:53;68.00;54.25;24.75
30713;PMS7003;17465;47.934;33.430;2023-02-18T06:57:24;83.00;61.25;32.75
30713;PMS7003;17465;47.934;33.430;2023-02-18T06:59:55;71.00;52.50;32.75
30713;PMS7003;17465;47.934;33.430;2023-02-18T07:02:25;102.00;81.50;46.00
30713;PMS7003;17465;47.934;33.430;2023-02-18T07:04:58;98.50;77.25;43.25
30713;PMS7003;17465;47.934;33.430;2023-02-18T07:07:32;61.50;49.25;27.25
30713;PMS7003;17465;47.934;33.430;2023-02-18T07:10:03;86.25;69.25;40.00
30713;PMS7003;17465;47.934;33.430;2023-02-18T07:12:54;86.00;66.25;36.25
30713;PMS7003;17465;47.934;33.430;2023-02-18T07:15:30;84.25;64.00;36.50
30713;PMS7003;17465;47.934;33.430;2023-02-18T07:18:02;71.50;56.00;31.75
30713;PMS7003;17465;47.934;33.430;2023-02-18T07:20:33;65.25;53.75;31.25
30713;PMS7003;17465;47.934;33.430;2023-02-18T07:23:04;63.00;49.75;29.25
30713;PMS7003;17465;47.934;33.430;2023-02-18T07:25:38;71.25;60.00;33.75
30713;PMS7003;17465;47.934;33.430;2023-02-18T07:28:08;87.25;69.00;41.00
30713;PMS7003;17465;47.934;33.430;2023-02-18T07:30:41;113.50;99.50;55.00
30713;PMS7003;17465;47.934;33.430;2023-02-18T07:33:12;109.00;95.50;56.25
30713;PMS7003;17465;47.934;33.430;2023-02-18T07:35:44;103.50;92.50;55.00
30713;PMS7003;17465;47.934;33.430;2023-02-18T07:38:15;96.00;78.00;52.25
30713;PMS7003;17465;47.934;33.430;2023-02-18T07:40:47;110.75;96.75;56.00
30713;PMS7003;17465;47.934;33.430;2023-02-18T07:43:18;102.75;82.50;47.75
30713;PMS7003;17465;47.934;33.430;2023-02-18T07:45:49;130.75;118.25;66.75
30713;PMS7003;17465;47.934;33.430;2023-02-18T07:48:20;95.25;74.25;46.75
30713;PMS7003;17465;47.934;33.430;2023-02-18T07:50:52;101.75;78.00;46.25
30713;PMS7003;17465;47.934;33.430;2023-02-18T07:53:23;104.00;85.75;47.50
30713;PMS7003;17465;47.934;33.430;2023-02-18T07:55:53;100.25;81.25;46.25
30713;PMS7003;17465;47.934;33.430;2023-02-18T07:58:26;85.75;64.25;33.00
30713;PMS7003;17465;47.934;33.430;2023-02-18T08:00:59;70.00;53.00;30.75
30713;PMS7003;17465;47.934;33.430;2023-02-18T08:03:31;76.00;58.75;31.00
30713;PMS7003;17465;47.934;33.430;2023-02-18T08:06:03;88.00;67.75;38.25
30713;PMS7003;17465;47.934;33.430;2023-02-18T08:08:35;97.00;75.25;42.00
30713;PMS7003;17465;47.934;33.430;2023-02-18T08:11:06;83.00;62.00;32.50
30713;PMS7003;17465;47.934;33.430;2023-02-18T08:13:39;75.50;59.75;33.75
30713;PMS7003;17465;47.934;33.430;2023-02-18T08:16:09;86.50;65.00;36.25
30713;PMS7003;17465;47.934;33.430;2023-02-18T08:18:40;83.75;65.50;36.25
30713;PMS7003;17465;47.934;33.430;2023-02-18T08:21:10;95.25;71.25;36.25
30713;PMS7003;17465;47.934;33.430;2023-02-18T08:23:42;91.50;69.75;37.50
30713;PMS7003;17465;47.934;33.430;2023-02-18T08:26:13;65.00;50.75;32.25
30713;PMS7003;17465;47.934;33.430;2023-02-18T08:28:46;81.00;62.00;36.25
30713;PMS7003;17465;47.934;33.430;2023-02-18T08:31:23;70.25;56.50;31.75
30713;PMS7003;17465;47.934;33.430;2023-02-18T08:33:52;74.75;59.25;37.00
30713;PMS7003;17465;47.934;33.430;2023-02-18T08:36:24;80.00;64.25;37.00
30713;PMS7003;17465;47.934;33.430;2023-02-18T08:39:15;66.00;54.25;28.50
30713;PMS7003;17465;47.934;33.430;2023-02-18T08:41:49;65.00;53.75;29.25
30713;PMS7003;17465;47.934;33.430;2023-02-18T08:44:19;63.00;52.25;29.25
30713;PMS7003;17465;47.934;33.430;2023-02-18T08:46:50;72.75;58.00;32.25
30713;PMS7003;17465;47.934;33.430;2023-02-18T08:49:20;62.25;49.00;26.75
30713;PMS7003;17465;47.934;33.430;2023-02-18T08:51:51;69.75;53.50;32.50
30713;PMS7003;17465;47.934;33.430;2023-02-18T08:54:21;72.25;59.00;32.00
30713;PMS7003;17465;47.934;33.430;2023-02-18T08:56:55;76.75;62.00;39.25
30713;PMS7003;17465;47.934;33.430;2023-02-18T08:59:26;71.50;55.75;29.75
30713;PMS7003;17465;47.934;33.430;2023-02-18T09:01:57;78.25;61.00;35.50
30713;PMS7003;17465;47.934;33.430;2023-02-18T09:04:28;74.25;58.25;33.75
30713;PMS7003;17465;47.934;33.430;2023-02-18T09:06:59;78.25;61.25;37.00
30713;PMS7003;17465;47.934;33.430;2023-02-18T09:09:29;67.75;54.75;34.00
30713;PMS7003;17465;47.934;33.430;2023-02-18T09:12:00;76.50;61.50;36.25
30713;PMS7003;17465;47.934;33.430;2023-02-18T09:14:31;78.25;61.25;37.50
30713;PMS7003;17465;47.934;33.430;2023-02-18T09:17:01;77.75;58.50;37.75
30713;PMS7003;17465;47.934;33.430;2023-02-18T09:19:32;73.00;59.75;37.00
30713;PMS7003;17465;47.934;33.430;2023-02-18T09:22:03;134.25;122.75;69.00
30713;PMS7003;17465;47.934;33.430;2023-02-18T09:24:37;86.75;67.00;42.00
30713;PMS7003;17465;47.934;33.430;2023-02-18T09:27:28;86.75;67.25;43.25
30713;PMS7003;17465;47.934;33.430;2023-02-18T09:30:03;71.50;60.00;38.25
30713;PMS7003;17465;47.934;33.430;2023-02-18T09:32:34;64.75;52.50;30.50
30713;PMS7003;17465;47.934;33.430;2023-02-18T09:35:05;76.75;60.75;36.25
30713;PMS7003;17465;47.934;33.430;2023-02-18T09:37:36;72.75;58.00;33.75
30713;PMS7003;17465;47.934;33.430;2023-02-18T09:40:07;71.25;57.50;29.50
30713;PMS7003;17465;47.934;33.430;2023-02-18T09:42:39;66.75;49.75;26.75
30713;PMS7003;17465;47.934;33.430;2023-02-18T09:45:09;64.00;52.25;31.50
30713;PMS7003;17465;47.934;33.430;2023-02-18T09:47:43;62.50;50.50;28.50
30713;PMS7003;17465;47.934;33.430;2023-02-18T09:50:19;56.25;48.75;27.00
30713;PMS7003;17465;47.934;33.430;2023-02-18T09:52:57;47.00;39.75;21.50
30713;PMS7003;17465;47.934;33.430;2023-02-18T09:55:37;48.00;41.75;18.75
30713;PMS7003;17465;47.934;33.430;2023-02-18T09:58:13;63.50;50.75;25.25
30713;PMS7003;17465;47.934;33.430;2023-02-18T10:00:46;57.50;48.50;27.00
30713;PMS7003;17465;47.934;33.430;2023-02-18T10:03:37;54.75;44.25;26.25
30713;PMS7003;17465;47.934;33.430;2023-02-18T10:06:28;63.75;51.00;30.25
30713;PMS7003;17465;47.934;33.430;2023-02-18T10:08:50;58.00;48.25;29.25
30713;PMS7003;17465;47.934;33.430;2023-02-18T10:11:28;66.25;55.25;32.25
30713;PMS7003;17465;47.934;33.430;2023-02-18T10:14:15;63.75;51.50;28.50
30713;PMS7003;17465;47.934;33.430;2023-02-18T10:16:47;63.75;47.50;27.25
30713;PMS7003;17465;47.934;33.430;2023-02-18T10:19:32;76.25;59.50;35.25
30713;PMS7003;17465;47.934;33.430;2023-02-18T10:22:11;52.75;44.75;27.50
30713;PMS7003;17465;47.934;33.430;2023-02-18T10:24:45;65.25;51.25;29.25
30713;PMS7003;17465;47.934;33.430;2023-02-18T10:27:30;67.75;53.25;29.75
30713;PMS7003;17465;47.934;33.430;2023-02-18T10:29:56;68.25;53.75;30.25
30713;PMS7003;17465;47.934;33.430;2023-02-18T10:32:32;65.75;53.00;31.25
30713;PMS7003;17465;47.934;33.430;2023-02-18T10:35:14;45.75;37.25;20.75
30713;PMS7003;17465;47.934;33.430;2023-02-18T10:40:58;49.50;42.50;24.25
30713;PMS7003;17465;47.934;33.430;2023-02-18T10:46:17;59.00;49.25;30.00
30713;PMS7003;17465;47.934;33.430;2023-02-18T10:49:07;61.75;50.00;27.00
30713;PMS7003;17465;47.934;33.430;2023-02-18T10:51:41;59.00;47.50;29.00
30713;PMS7003;17465;47.934;33.430;2023-02-18T10:54:17;72.50;55.25;33.50
30713;PMS7003;17465;47.934;33.430;2023-02-18T10:56:51;67.75;56.00;33.75
30713;PMS7003;17465;47.934;33.430;2023-02-18T10:59:28;67.50;55.25;31.75
30713;PMS7003;17465;47.934;33.430;2023-02-18T11:02:02;63.75;49.75;28.00
30713;PMS7003;17465;47.934;33.430;2023-02-18T11:04:41;66.00;53.50;29.75
30713;PMS7003;17465;47.934;33.430;2023-02-18T11:07:12;62.25;50.25;29.25
30713;PMS7003;17465;47.934;33.430;2023-02-18T11:09:48;63.00;49.75;29.75
30713;PMS7003;17465;47.934;33.430;2023-02-18T11:12:42;64.25;53.00;29.25
30713;PMS7003;17465;47.934;33.430;2023-02-18T11:15:14;59.25;48.00;28.75
30713;PMS7003;17465;47.934;33.430;2023-02-18T11:17:40;61.50;49.25;26.50
30713;PMS7003;17465;47.934;33.430;2023-02-18T11:20:29;62.75;51.75;31.50
30713;PMS7003;17465;47.934;33.430;2023-02-18T11:25:52;78.50;61.25;35.00
30713;PMS7003;17465;47.934;33.430;2023-02-18T11:31:05;49.75;41.50;25.00
30713;PMS7003;17465;47.934;33.430;2023-02-18T11:33:43;65.25;53.25;31.50
30713;PMS7003;17465;47.934;33.430;2023-02-18T11:36:28;60.75;45.50;26.75
30713;PMS7003;17465;47.934;33.430;2023-02-18T11:41:37;66.00;54.25;32.25
30713;PMS7003;17465;47.934;33.430;2023-02-18T11:50:33;56.50;45.00;26.25
30713;PMS7003;17465;47.934;33.430;2023-02-18T11:52:41;57.75;47.50;28.50
30713;PMS7003;17465;47.934;33.430;2023-02-18T11:55:26;56.75;44.75;24.00
30713;PMS7003;17465;47.934;33.430;2023-02-18T11:57:59;60.00;49.25;29.00
30713;PMS7003;17465;47.934;33.430;2023-02-18T12:00:36;63.25;50.00;28.50
30713;PMS7003;17465;47.934;33.430;2023-02-18T12:03:17;59.75;48.25;29.25
30713;PMS7003;17465;47.934;33.430;2023-02-18T12:05:57;52.00;44.00;21.25
30713;PMS7003;17465;47.934;33.430;2023-02-18T12:08:36;61.75;49.25;30.00
30713;PMS7003;17465;47.934;33.430;2023-02-18T12:11:13;54.75;45.50;26.75
30713;PMS7003;17465;47.934;33.430;2023-02-18T12:13:47;50.25;42.25;25.75
30713;PMS7003;17465;47.934;33.430;2023-02-18T12:16:33;51.75;42.75;26.25
30713;PMS7003;17465;47.934;33.430;2023-02-18T12:22:14;49.25;41.25;26.25
30713;PMS7003;17465;47.934;33.430;2023-02-18T12:24:54;45.75;40.25;23.75
30713;PMS7003;17465;47.934;33.430;2023-02-18T12:27:29;48.00;40.50;24.00
30713;PMS7003;17465;47.934;33.430;2023-02-18T12:30:21;51.75;42.25;26.00
30713;PMS7003;17465;47.934;33.430;2023-02-18T12:44:33;41.50;35.75;24.25
30713;PMS7003;17465;47.934;33.430;2023-02-18T12:50:02;42.75;36.00;20.25
30713;PMS7003;17465;47.934;33.430;2023-02-18T12:52:48;39.25;35.50;19.00
30713;PMS7003;17465;47.934;33.430;2023-02-18T12:55:35;42.50;37.00;20.50
30713;PMS7003;17465;47.934;33.430;2023-02-18T12:58:17;38.75;36.00;22.00
30713;PMS7003;17465;47.934;33.430;2023-02-18T13:04:04;35.50;32.50;17.25
30713;PMS7003;17465;47.934;33.430;2023-02-18T13:12:38;33.25;30.50;18.25
30713;PMS7003;17465;47.934;33.430;2023-02-18T13:15:36;34.25;29.50;16.25
30713;PMS7003;17465;47.934;33.430;2023-02-18T13:18:13;34.75;32.00;18.25
30713;PMS7003;17465;47.934;33.430;2023-02-18T13:20:47;30.75;29.50;16.00
30713;PMS7003;17465;47.934;33.430;2023-02-18T13:23:29;23.50;22.75;14.25
30713;PMS7003;17465;47.934;33.430;2023-02-18T13:26:02;21.00;18.50;11.50
30713;PMS7003;17465;47.934;33.430;2023-02-18T13:28:37;21.75;19.75;12.25
30713;PMS7003;17465;47.934;33.430;2023-02-18T13:31:31;15.25;14.75;8.75
30713;PMS7003;17465;47.934;33.430;2023-02-18T13:37:10;5.00;5.00;2.75
30713;PMS7003;17465;47.934;33.430;2023-02-18T13:42:32;10.00;9.00;6.00
30713;PMS7003;17465;47.934;33.430;2023-02-18T13:45:06;5.00;5.00;3.00
30713;PMS7003;17465;47.934;33.430;2023-02-18T13:47:56;2.00;2.00;1.00
30713;PMS7003;17465;47.934;33.430;2023-02-18T13:50:31;4.75;4.25;2.25
30713;PMS7003;17465;47.934;33.430;2023-02-18T13:53:22;2.25;2.25;1.00
30713;PMS7003;17465;47.934;33.430;2023-02-18T14:01:20;3.00;3.00;2.00
30713;PMS7003;17465;47.934;33.430;2023-02-18T14:03:54;3.50;3.50;2.00
30713;PMS7003;17465;47.934;33.430;2023-02-18T14:11:47;3.25;2.00;1.00
30713;PMS7003;17465;47.934;33.430;2023-02-18T14:14:30;1.00;1.00;1.00
30713;PMS7003;17465;47.934;33.430;2023-02-18T14:25:21;2.50;2.50;1.25
30713;PMS7003;17465;47.934;33.430;2023-02-18T14:28:03;1.75;1.75;0.75
30713;PMS7003;17465;47.934;33.430;2023-02-18T14:30:52;3.25;2.00;1.00
30713;PMS7003;17465;47.934;33.430;2023-02-18T14:33:24;3.75;3.00;1.00
30713;PMS7003;17465;47.934;33.430;2023-02-18T14:36:05;2.00;2.00;1.00
30713;PMS7003;17465;47.934;33.430;2023-02-18T14:39:01;3.00;3.00;2.00
30713;PMS7003;17465;47.934;33.430;2023-02-18T14:41:40;1.00;1.00;1.00
30713;PMS7003;17465;47.934;33.430;2023-02-18T14:47:32;3.00;2.50;1.00
30713;PMS7003;17465;47.934;33.430;2023-02-18T14:50:22;0.25;0.25;0.00
30713;PMS7003;17465;47.934;33.430;2023-02-18T14:55:52;23.00;19.75;10.50
30713;PMS7003;17465;47.934;33.430;2023-02-18T14:58:28;2.00;2.00;1.75
30713;PMS7003;17465;47.934;33.430;2023-02-18T15:03:51;3.00;3.00;1.00
30713;PMS7003;17465;47.934;33.430;2023-02-18T15:09:12;3.00;2.75;2.00
30713;PMS7003;17465;47.934;33.430;2023-02-18T15:11:50;6.00;3.25;2.00
30713;PMS7003;17465;47.934;33.430;2023-02-18T15:14:31;3.00;3.00;1.00
30713;PMS7003;17465;47.934;33.430;2023-02-18T15:17:04;2.75;1.00;0.00
30713;PMS7003;17465;47.934;33.430;2023-02-18T15:19:51;3.00;3.00;2.00
30713;PMS7003;17465;47.934;33.430;2023-02-18T15:22:30;3.50;2.50;1.50
30713;PMS7003;17465;47.934;33.430;2023-02-18T15:25:03;3.75;3.75;2.00
30713;PMS7003;17465;47.934;33.430;2023-02-18T15:27:36;2.00;2.00;1.00
30713;PMS7003;17465;47.934;33.430;2023-02-18T15:32:56;2.50;2.00;1.00
30713;PMS7003;17465;47.934;33.430;2023-02-18T15:35:29;2.50;2.50;1.00
30713;PMS7003;17465;47.934;33.430;2023-02-18T15:38:01;3.00;3.00;1.00
30713;PMS7003;17465;47.934;33.430;2023-02-18T15:40:32;3.00;2.00;1.00
30713;PMS7003;17465;47.934;33.430;2023-02-18T15:43:05;2.00;2.00;0.50
30713;PMS7003;17465;47.934;33.430;2023-02-18T15:45:38;3.00;3.00;1.00
30713;PMS7003;17465;47.934;33.430;2023-02-18T15:48:22;2.75;2.00;1.00
30713;PMS7003;17465;47.934;33.430;2023-02-18T15:51:02;3.00;1.75;1.00
30713;PMS7003;17465;47.934;33.430;2023-02-18T15:53:41;4.00;3.00;1.33
30713;PMS7003;17465;47.934;33.430;2023-02-18T16:14:45;2.50;2.00;0.00
30713;PMS7003;17465;47.934;33.430;2023-02-18T16:17:19;2.75;2.75;2.00
30713;PMS7003;17465;47.934;33.430;2023-02-18T16:19:53;2.75;2.75;1.00
30713;PMS7003;17465;47.934;33.430;2023-02-18T16:25:20;3.00;2.25;0.50
30713;PMS7003;17465;47.934;33.430;2023-02-18T16:30:47;3.75;3.00;1.50
30713;PMS7003;17465;47.934;33.430;2023-02-18T16:33:19;2.50;2.50;1.25
30713;PMS7003;17465;47.934;33.430;2023-02-18T16:35:49;7.25;3.50;2.00
30713;PMS7003;17465;47.934;33.430;2023-02-18T16:38:22;15.75;12.25;5.00
30713;PMS7003;17465;47.934;33.430;2023-02-18T16:40:53;9.00;7.25;3.50
30713;PMS7003;17465;47.934;33.430;2023-02-18T16:43:25;4.00;4.00;2.50
30713;PMS7003;17465;47.934;33.430;2023-02-18T16:46:15;4.50;4.50;2.00